sensor_id;sensor_type;location;lat;lon;timestamp;pressure;altitude;pressure_sealevel;temperature;humidity
76553;BME280;65395;53.168;18.156;2022-12-18T00:01:18;102535.54;;;-3.98;80.65
76553;BME280;65395;53.168;18.156;2022-12-18T00:03:45;102533.55;;;-3.99;80.69
76553;BME280;65395;53.168;18.156;2022-12-18T00:06:14;102532.88;;;-3.99;80.63
76553;BME280;65395;53.168;18.156;2022-12-18T00:08:42;102535.41;;;-4.00;80.74
76553;BME280;65395;53.168;18.156;2022-12-18T00:11:12;102540.23;;;-4.04;80.87
76553;BME280;65395;53.168;18.156;2022-12-18T00:13:40;102547.13;;;-4.06;80.72
76553;BME280;65395;53.168;18.156;2022-12-18T00:16:10;102556.83;;;-4.07;80.67
76553;BME280;65395;53.168;18.156;2022-12-18T00:18:37;102563.29;;;-4.04;80.81
76553;BME280;65395;53.168;18.156;2022-12-18T00:21:06;102566.75;;;-4.01;80.72
76553;BME280;65395;53.168;18.156;2022-12-18T00:23:34;102562.91;;;-3.98;80.54
76553;BME280;65395;53.168;18.156;2022-12-18T00:26:04;102562.18;;;-3.98;80.66
76553;BME280;65395;53.168;18.156;2022-12-18T00:28:33;102561.15;;;-3.95;80.69
76553;BME280;65395;53.168;18.156;2022-12-18T00:31:02;102572.12;;;-3.90;80.64
76553;BME280;65395;53.168;18.156;2022-12-18T00:33:30;102567.17;;;-3.89;80.49
76553;BME280;65395;53.168;18.156;2022-12-18T00:36:09;102572.01;;;-3.89;80.60
76553;BME280;65395;53.168;18.156;2022-12-18T00:38:37;102588.24;;;-3.89;80.38
76553;BME280;65395;53.168;18.156;2022-12-18T00:41:04;102581.08;;;-3.87;80.42
76553;BME280;65395;53.168;18.156;2022-12-18T00:43:31;102583.55;;;-3.88;80.37
76553;BME280;65395;53.168;18.156;2022-12-18T00:45:58;102581.38;;;-3.90;80.53
76553;BME280;65395;53.168;18.156;2022-12-18T00:48:26;102588.55;;;-3.94;80.53
76553;BME280;65395;53.168;18.156;2022-12-18T00:50:52;102590.08;;;-3.97;80.52
76553;BME280;65395;53.168;18.156;2022-12-18T00:53:19;102591.15;;;-3.99;80.59
76553;BME280;65395;53.168;18.156;2022-12-18T00:55:46;102595.77;;;-3.97;80.55
76553;BME280;65395;53.168;18.156;2022-12-18T00:58:15;102597.08;;;-3.95;80.48
76553;BME280;65395;53.168;18.156;2022-12-18T01:00:43;102598.41;;;-3.93;80.64
76553;BME280;65395;53.168;18.156;2022-12-18T01:03:13;102595.89;;;-3.88;80.54
76553;BME280;65395;53.168;18.156;2022-12-18T01:05:40;102602.96;;;-3.82;80.39
76553;BME280;65395;53.168;18.156;2022-12-18T01:08:07;102610.89;;;-3.77;80.43
76553;BME280;65395;53.168;18.156;2022-12-18T01:10:35;102612.11;;;-3.77;80.45
76553;BME280;65395;53.168;18.156;2022-12-18T01:13:01;102608.70;;;-3.79;80.38
76553;BME280;65395;53.168;18.156;2022-12-18T01:15:28;102613.39;;;-3.84;80.53
76553;BME280;65395;53.168;18.156;2022-12-18T01:17:55;102614.62;;;-3.88;80.67
76553;BME280;65395;53.168;18.156;2022-12-18T01:20:22;102620.85;;;-3.90;80.67
76553;BME280;65395;53.168;18.156;2022-12-18T01:22:48;102621.59;;;-3.92;80.77
76553;BME280;65395;53.168;18.156;2022-12-18T01:25:15;102624.50;;;-3.96;80.85
76553;BME280;65395;53.168;18.156;2022-12-18T01:27:43;102626.92;;;-3.98;80.79
76553;BME280;65395;53.168;18.156;2022-12-18T01:30:10;102624.21;;;-3.98;81.19
76553;BME280;65395;53.168;18.156;2022-12-18T01:32:37;102627.98;;;-3.97;81.08
76553;BME280;65395;53.168;18.156;2022-12-18T01:35:04;102628.86;;;-3.93;81.18
76553;BME280;65395;53.168;18.156;2022-12-18T01:37:32;102630.73;;;-3.91;81.08
76553;BME280;65395;53.168;18.156;2022-12-18T01:39:58;102635.11;;;-3.90;81.03
76553;BME280;65395;53.168;18.156;2022-12-18T01:42:25;102636.28;;;-3.92;81.08
76553;BME280;65395;53.168;18.156;2022-12-18T01:45:05;102638.33;;;-3.93;81.10
76553;BME280;65395;53.168;18.156;2022-12-18T01:47:39;102641.81;;;-3.94;81.21
76553;BME280;65395;53.168;18.156;2022-12-18T01:50:14;102648.79;;;-3.95;81.33
76553;BME280;65395;53.168;18.156;2022-12-18T01:52:45;102639.30;;;-3.99;81.32
76553;BME280;65395;53.168;18.156;2022-12-18T01:55:15;102642.95;;;-3.95;81.35
76553;BME280;65395;53.168;18.156;2022-12-18T01:57:42;102644.95;;;-3.91;81.23
76553;BME280;65395;53.168;18.156;2022-12-18T02:00:15;102642.76;;;-3.86;81.15
76553;BME280;65395;53.168;18.156;2022-12-18T02:02:44;102650.05;;;-3.80;80.93
76553;BME280;65395;53.168;18.156;2022-12-18T02:05:17;102656.88;;;-3.75;80.93
76553;BME280;65395;53.168;18.156;2022-12-18T02:10:51;102656.14;;;-3.63;80.92
76553;BME280;65395;53.168;18.156;2022-12-18T02:13:53;102659.30;;;-3.60;80.82
76553;BME280;65395;53.168;18.156;2022-12-18T02:25:15;102657.47;;;-3.61;80.83
76553;BME280;65395;53.168;18.156;2022-12-18T02:27:49;102659.92;;;-3.65;80.66
76553;BME280;65395;53.168;18.156;2022-12-18T02:30:18;102663.53;;;-3.71;80.72
76553;BME280;65395;53.168;18.156;2022-12-18T02:32:48;102667.52;;;-3.73;80.77
76553;BME280;65395;53.168;18.156;2022-12-18T02:35:22;102669.54;;;-3.74;81.02
76553;BME280;65395;53.168;18.156;2022-12-18T02:37:55;102671.75;;;-3.72;80.79
76553;BME280;65395;53.168;18.156;2022-12-18T02:40:24;102677.76;;;-3.68;80.85
76553;BME280;65395;53.168;18.156;2022-12-18T02:42:52;102676.63;;;-3.64;80.91
76553;BME280;65395;53.168;18.156;2022-12-18T02:45:20;102674.86;;;-3.65;80.77
76553;BME280;65395;53.168;18.156;2022-12-18T02:47:52;102680.55;;;-3.67;80.81
76553;BME280;65395;53.168;18.156;2022-12-18T02:50:32;102680.80;;;-3.68;80.81
76553;BME280;65395;53.168;18.156;2022-12-18T02:53:16;102679.14;;;-3.69;80.87
76553;BME280;65395;53.168;18.156;2022-12-18T02:56:01;102677.77;;;-3.70;80.93
76553;BME280;65395;53.168;18.156;2022-12-18T02:58:51;102687.62;;;-3.71;80.69
76553;BME280;65395;53.168;18.156;2022-12-18T03:02:25;102686.10;;;-3.71;80.90
76553;BME280;65395;53.168;18.156;2022-12-18T03:07:27;102691.63;;;-3.77;80.73
76553;BME280;65395;53.168;18.156;2022-12-18T03:10:00;102692.94;;;-3.80;80.95
76553;BME280;65395;53.168;18.156;2022-12-18T03:12:32;102694.57;;;-3.81;80.78
76553;BME280;65395;53.168;18.156;2022-12-18T03:15:08;102696.25;;;-3.82;80.76
76553;BME280;65395;53.168;18.156;2022-12-18T03:17:41;102698.19;;;-3.83;80.74
76553;BME280;65395;53.168;18.156;2022-12-18T03:20:14;102697.70;;;-3.81;80.86
76553;BME280;65395;53.168;18.156;2022-12-18T03:22:46;102703.20;;;-3.80;80.82
76553;BME280;65395;53.168;18.156;2022-12-18T03:25:16;102705.65;;;-3.76;80.78
76553;BME280;65395;53.168;18.156;2022-12-18T03:27:48;102709.66;;;-3.75;80.62
76553;BME280;65395;53.168;18.156;2022-12-18T03:30:17;102716.03;;;-3.75;80.77
76553;BME280;65395;53.168;18.156;2022-12-18T03:32:52;102724.10;;;-3.73;80.61
76553;BME280;65395;53.168;18.156;2022-12-18T03:35:27;102727.36;;;-3.71;80.46
76553;BME280;65395;53.168;18.156;2022-12-18T03:37:56;102730.50;;;-3.70;80.66
76553;BME280;65395;53.168;18.156;2022-12-18T03:40:31;102734.95;;;-3.70;80.46
76553;BME280;65395;53.168;18.156;2022-12-18T03:43:08;102742.60;;;-3.73;80.48
76553;BME280;65395;53.168;18.156;2022-12-18T03:45:42;102741.23;;;-3.80;80.64
76553;BME280;65395;53.168;18.156;2022-12-18T03:48:19;102744.09;;;-3.82;80.56
76553;BME280;65395;53.168;18.156;2022-12-18T03:50:57;102751.21;;;-3.81;80.62
76553;BME280;65395;53.168;18.156;2022-12-18T03:53:48;102750.64;;;-3.78;80.71
76553;BME280;65395;53.168;18.156;2022-12-18T03:56:20;102745.94;;;-3.72;80.60
76553;BME280;65395;53.168;18.156;2022-12-18T03:58:50;102750.70;;;-3.68;80.30
76553;BME280;65395;53.168;18.156;2022-12-18T04:01:27;102754.25;;;-3.67;80.32
76553;BME280;65395;53.168;18.156;2022-12-18T04:03:56;102760.51;;;-3.66;80.29
76553;BME280;65395;53.168;18.156;2022-12-18T04:06:25;102759.01;;;-3.63;80.33
76553;BME280;65395;53.168;18.156;2022-12-18T04:08:52;102761.14;;;-3.58;80.22
76553;BME280;65395;53.168;18.156;2022-12-18T04:11:21;102756.57;;;-3.57;80.23
76553;BME280;65395;53.168;18.156;2022-12-18T04:13:48;102759.05;;;-3.58;80.18
76553;BME280;65395;53.168;18.156;2022-12-18T04:16:19;102758.77;;;-3.62;80.07
76553;BME280;65395;53.168;18.156;2022-12-18T04:18:46;102761.75;;;-3.66;80.15
76553;BME280;65395;53.168;18.156;2022-12-18T04:21:14;102762.48;;;-3.70;80.21
76553;BME280;65395;53.168;18.156;2022-12-18T04:23:41;102761.51;;;-3.75;80.20
76553;BME280;65395;53.168;18.156;2022-12-18T04:26:08;102770.20;;;-3.78;80.21
76553;BME280;65395;53.168;18.156;2022-12-18T04:28:44;102770.04;;;-3.80;80.15
76553;BME280;65395;53.168;18.156;2022-12-18T04:31:12;102770.52;;;-3.79;80.21
76553;BME280;65395;53.168;18.156;2022-12-18T04:33:39;102770.98;;;-3.79;80.13
76553;BME280;65395;53.168;18.156;2022-12-18T04:36:06;102778.04;;;-3.77;80.08
76553;BME280;65395;53.168;18.156;2022-12-18T04:38:34;102784.48;;;-3.76;80.14
76553;BME280;65395;53.168;18.156;2022-12-18T04:41:06;102777.89;;;-3.74;80.09
76553;BME280;65395;53.168;18.156;2022-12-18T04:43:33;102779.60;;;-3.72;80.18
76553;BME280;65395;53.168;18.156;2022-12-18T04:46:04;102781.50;;;-3.70;80.13
76553;BME280;65395;53.168;18.156;2022-12-18T04:48:32;102782.46;;;-3.71;80.01
76553;BME280;65395;53.168;18.156;2022-12-18T04:50:59;102788.59;;;-3.74;80.04
76553;BME280;65395;53.168;18.156;2022-12-18T04:53:26;102792.08;;;-3.79;80.04
76553;BME280;65395;53.168;18.156;2022-12-18T04:56:04;102788.02;;;-3.83;79.94
76553;BME280;65395;53.168;18.156;2022-12-18T04:58:32;102792.13;;;-3.89;79.96
76553;BME280;65395;53.168;18.156;2022-12-18T05:00:59;102795.92;;;-3.95;79.90
76553;BME280;65395;53.168;18.156;2022-12-18T05:03:26;102795.21;;;-4.02;79.94
76553;BME280;65395;53.168;18.156;2022-12-18T05:05:53;102799.84;;;-4.08;80.00
76553;BME280;65395;53.168;18.156;2022-12-18T05:08:20;102798.36;;;-4.12;80.04
76553;BME280;65395;53.168;18.156;2022-12-18T05:10:47;102797.61;;;-4.15;79.99
76553;BME280;65395;53.168;18.156;2022-12-18T05:13:14;102799.88;;;-4.20;80.08
76553;BME280;65395;53.168;18.156;2022-12-18T05:15:40;102805.59;;;-4.22;80.04
76553;BME280;65395;53.168;18.156;2022-12-18T05:18:08;102807.95;;;-4.23;80.24
76553;BME280;65395;53.168;18.156;2022-12-18T05:20:35;102811.08;;;-4.26;80.17
76553;BME280;65395;53.168;18.156;2022-12-18T05:23:02;102811.77;;;-4.28;80.23
76553;BME280;65395;53.168;18.156;2022-12-18T05:25:28;102815.55;;;-4.33;80.14
76553;BME280;65395;53.168;18.156;2022-12-18T05:27:55;102823.80;;;-4.39;80.23
76553;BME280;65395;53.168;18.156;2022-12-18T05:30:22;102824.81;;;-4.45;80.29
76553;BME280;65395;53.168;18.156;2022-12-18T05:32:49;102832.89;;;-4.53;80.46
76553;BME280;65395;53.168;18.156;2022-12-18T05:35:15;102836.95;;;-4.62;80.33
76553;BME280;65395;53.168;18.156;2022-12-18T05:37:42;102844.41;;;-4.71;80.62
76553;BME280;65395;53.168;18.156;2022-12-18T05:40:09;102847.04;;;-4.79;80.63
76553;BME280;65395;53.168;18.156;2022-12-18T05:42:36;102848.26;;;-4.86;80.71
76553;BME280;65395;53.168;18.156;2022-12-18T05:45:04;102851.58;;;-4.90;80.82
76553;BME280;65395;53.168;18.156;2022-12-18T05:47:31;102852.44;;;-4.92;80.96
76553;BME280;65395;53.168;18.156;2022-12-18T05:49:58;102852.21;;;-4.92;81.01
76553;BME280;65395;53.168;18.156;2022-12-18T05:52:24;102855.75;;;-4.89;80.94
76553;BME280;65395;53.168;18.156;2022-12-18T05:54:51;102859.33;;;-4.87;80.90
76553;BME280;65395;53.168;18.156;2022-12-18T05:57:18;102864.83;;;-4.81;80.86
76553;BME280;65395;53.168;18.156;2022-12-18T05:59:45;102871.05;;;-4.75;80.90
76553;BME280;65395;53.168;18.156;2022-12-18T06:02:12;102870.48;;;-4.75;80.72
76553;BME280;65395;53.168;18.156;2022-12-18T06:04:38;102873.23;;;-4.73;80.78
76553;BME280;65395;53.168;18.156;2022-12-18T06:07:05;102878.47;;;-4.72;80.85
76553;BME280;65395;53.168;18.156;2022-12-18T06:09:31;102879.42;;;-4.71;80.80
76553;BME280;65395;53.168;18.156;2022-12-18T06:11:58;102880.73;;;-4.72;80.57
76553;BME280;65395;53.168;18.156;2022-12-18T06:14:25;102882.52;;;-4.75;80.57
76553;BME280;65395;53.168;18.156;2022-12-18T06:16:52;102884.23;;;-4.79;80.67
76553;BME280;65395;53.168;18.156;2022-12-18T06:19:19;102887.61;;;-4.83;80.51
76553;BME280;65395;53.168;18.156;2022-12-18T06:21:46;102890.32;;;-4.88;80.49
76553;BME280;65395;53.168;18.156;2022-12-18T06:24:13;102898.68;;;-4.96;80.80
76553;BME280;65395;53.168;18.156;2022-12-18T06:26:40;102903.64;;;-5.02;80.79
76553;BME280;65395;53.168;18.156;2022-12-18T06:29:06;102907.59;;;-5.06;80.96
76553;BME280;65395;53.168;18.156;2022-12-18T06:31:33;102909.46;;;-5.06;80.75
76553;BME280;65395;53.168;18.156;2022-12-18T06:34:02;102912.77;;;-5.04;81.06
76553;BME280;65395;53.168;18.156;2022-12-18T06:36:29;102911.89;;;-5.02;80.72
76553;BME280;65395;53.168;18.156;2022-12-18T06:38:57;102910.49;;;-5.00;80.72
76553;BME280;65395;53.168;18.156;2022-12-18T06:41:24;102919.85;;;-4.97;80.77
76553;BME280;65395;53.168;18.156;2022-12-18T06:43:51;102922.45;;;-4.95;80.74
76553;BME280;65395;53.168;18.156;2022-12-18T06:46:17;102927.23;;;-4.97;80.59
76553;BME280;65395;53.168;18.156;2022-12-18T06:48:47;102929.13;;;-5.03;80.56
76553;BME280;65395;53.168;18.156;2022-12-18T06:51:17;102932.84;;;-5.11;80.68
76553;BME280;65395;53.168;18.156;2022-12-18T06:53:43;102936.02;;;-5.17;80.72
76553;BME280;65395;53.168;18.156;2022-12-18T06:56:10;102937.41;;;-5.24;80.69
76553;BME280;65395;53.168;18.156;2022-12-18T06:58:38;102940.53;;;-5.31;80.61
76553;BME280;65395;53.168;18.156;2022-12-18T07:01:08;102938.28;;;-5.43;80.70
76553;BME280;65395;53.168;18.156;2022-12-18T07:03:35;102951.04;;;-5.42;80.67
76553;BME280;65395;53.168;18.156;2022-12-18T07:06:02;102955.41;;;-5.49;80.43
76553;BME280;65395;53.168;18.156;2022-12-18T07:08:31;102959.58;;;-5.58;80.49
76553;BME280;65395;53.168;18.156;2022-12-18T07:10:58;102963.86;;;-5.67;80.68
76553;BME280;65395;53.168;18.156;2022-12-18T07:13:24;102968.48;;;-5.71;80.61
76553;BME280;65395;53.168;18.156;2022-12-18T07:15:51;102971.64;;;-5.74;80.71
76553;BME280;65395;53.168;18.156;2022-12-18T07:18:18;102979.08;;;-5.75;80.69
76553;BME280;65395;53.168;18.156;2022-12-18T07:20:44;102981.77;;;-5.74;80.62
76553;BME280;65395;53.168;18.156;2022-12-18T07:23:11;102983.27;;;-5.72;80.80
76553;BME280;65395;53.168;18.156;2022-12-18T07:25:38;102984.39;;;-5.69;80.83
76553;BME280;65395;53.168;18.156;2022-12-18T07:28:06;102989.70;;;-5.69;80.85
76553;BME280;65395;53.168;18.156;2022-12-18T07:30:33;102989.42;;;-5.70;80.90
76553;BME280;65395;53.168;18.156;2022-12-18T07:32:59;102977.90;;;-5.80;80.73
76553;BME280;65395;53.168;18.156;2022-12-18T07:35:26;102998.88;;;-5.66;80.80
76553;BME280;65395;53.168;18.156;2022-12-18T07:37:53;103001.07;;;-5.65;80.71
76553;BME280;65395;53.168;18.156;2022-12-18T07:40:20;103006.79;;;-5.64;80.77
76553;BME280;65395;53.168;18.156;2022-12-18T07:42:46;103002.27;;;-5.63;80.63
76553;BME280;65395;53.168;18.156;2022-12-18T07:45:13;103009.11;;;-5.63;80.76
76553;BME280;65395;53.168;18.156;2022-12-18T07:47:40;103011.91;;;-5.64;80.87
76553;BME280;65395;53.168;18.156;2022-12-18T07:50:07;103012.38;;;-5.65;80.81
76553;BME280;65395;53.168;18.156;2022-12-18T07:52:34;103018.43;;;-5.64;80.81
76553;BME280;65395;53.168;18.156;2022-12-18T07:55:01;103022.38;;;-5.60;80.71
76553;BME280;65395;53.168;18.156;2022-12-18T07:57:28;103028.02;;;-5.56;80.80
76553;BME280;65395;53.168;18.156;2022-12-18T07:59:55;103021.38;;;-5.56;80.83
76553;BME280;65395;53.168;18.156;2022-12-18T08:02:21;103023.64;;;-5.59;80.86
76553;BME280;65395;53.168;18.156;2022-12-18T08:04:48;103023.77;;;-5.58;80.70
76553;BME280;65395;53.168;18.156;2022-12-18T08:07:15;103025.17;;;-5.59;80.64
76553;BME280;65395;53.168;18.156;2022-12-18T08:09:42;103021.41;;;-5.61;80.91
76553;BME280;65395;53.168;18.156;2022-12-18T08:12:08;103027.74;;;-5.58;80.67
76553;BME280;65395;53.168;18.156;2022-12-18T08:14:35;103040.54;;;-5.58;80.62
76553;BME280;65395;53.168;18.156;2022-12-18T08:17:01;103050.83;;;-5.58;80.71
76553;BME280;65395;53.168;18.156;2022-12-18T08:19:28;103051.36;;;-5.56;80.51
76553;BME280;65395;53.168;18.156;2022-12-18T08:21:55;103049.92;;;-5.57;80.48
76553;BME280;65395;53.168;18.156;2022-12-18T08:24:21;103053.46;;;-5.59;80.41
76553;BME280;65395;53.168;18.156;2022-12-18T08:26:48;103057.42;;;-5.57;80.48
76553;BME280;65395;53.168;18.156;2022-12-18T08:29:15;103058.77;;;-5.54;80.34
76553;BME280;65395;53.168;18.156;2022-12-18T08:31:42;103061.61;;;-5.51;80.24
76553;BME280;65395;53.168;18.156;2022-12-18T08:34:08;103065.41;;;-5.50;80.24
76553;BME280;65395;53.168;18.156;2022-12-18T08:36:35;103069.21;;;-5.52;80.00
76553;BME280;65395;53.168;18.156;2022-12-18T08:39:02;103069.91;;;-5.52;80.21
76553;BME280;65395;53.168;18.156;2022-12-18T08:41:29;103075.80;;;-5.51;80.09
76553;BME280;65395;53.168;18.156;2022-12-18T08:43:55;103079.41;;;-5.51;79.94
76553;BME280;65395;53.168;18.156;2022-12-18T08:46:36;103086.70;;;-5.50;79.98
76553;BME280;65395;53.168;18.156;2022-12-18T08:49:04;103089.52;;;-5.51;79.94
76553;BME280;65395;53.168;18.156;2022-12-18T08:51:32;103088.50;;;-5.54;80.12
76553;BME280;65395;53.168;18.156;2022-12-18T08:53:59;103089.21;;;-5.56;80.21
76553;BME280;65395;53.168;18.156;2022-12-18T08:56:25;103091.73;;;-5.58;80.12
76553;BME280;65395;53.168;18.156;2022-12-18T08:58:52;103090.85;;;-5.59;80.03
76553;BME280;65395;53.168;18.156;2022-12-18T09:01:21;103089.22;;;-5.63;80.05
76553;BME280;65395;53.168;18.156;2022-12-18T09:03:49;103081.40;;;-5.63;80.16
76553;BME280;65395;53.168;18.156;2022-12-18T09:06:17;103078.10;;;-5.61;80.32
76553;BME280;65395;53.168;18.156;2022-12-18T09:08:45;103075.00;;;-5.56;80.22
76553;BME280;65395;53.168;18.156;2022-12-18T09:11:18;103073.86;;;-5.48;80.26
76553;BME280;65395;53.168;18.156;2022-12-18T09:13:45;103082.88;;;-5.41;80.11
76553;BME280;65395;53.168;18.156;2022-12-18T09:16:12;103088.13;;;-5.40;79.97
76553;BME280;65395;53.168;18.156;2022-12-18T09:18:38;103088.73;;;-5.39;80.01
76553;BME280;65395;53.168;18.156;2022-12-18T09:21:10;103085.36;;;-5.35;79.86
76553;BME280;65395;53.168;18.156;2022-12-18T09:23:38;103075.69;;;-5.28;79.80
76553;BME280;65395;53.168;18.156;2022-12-18T09:26:05;103070.17;;;-5.22;79.95
76553;BME280;65395;53.168;18.156;2022-12-18T09:28:32;103065.45;;;-5.14;79.79
76553;BME280;65395;53.168;18.156;2022-12-18T09:30:59;103062.59;;;-5.10;79.74
76553;BME280;65395;53.168;18.156;2022-12-18T09:33:29;103047.51;;;-5.12;79.53
76553;BME280;65395;53.168;18.156;2022-12-18T09:35:56;103051.33;;;-5.03;79.44
76553;BME280;65395;53.168;18.156;2022-12-18T09:38:23;103051.71;;;-5.01;79.01
76553;BME280;65395;53.168;18.156;2022-12-18T09:40:57;103050.61;;;-5.00;78.96
76553;BME280;65395;53.168;18.156;2022-12-18T09:43:33;103054.95;;;-5.01;79.06
76553;BME280;65395;53.168;18.156;2022-12-18T09:46:06;103063.16;;;-5.00;79.16
76553;BME280;65395;53.168;18.156;2022-12-18T09:48:37;103067.38;;;-4.96;79.19
76553;BME280;65395;53.168;18.156;2022-12-18T09:51:13;103067.55;;;-4.92;79.02
76553;BME280;65395;53.168;18.156;2022-12-18T09:53:46;103069.44;;;-4.87;79.01
76553;BME280;65395;53.168;18.156;2022-12-18T09:56:18;103066.48;;;-4.83;78.94
76553;BME280;65395;53.168;18.156;2022-12-18T09:58:58;103068.21;;;-4.75;78.99
76553;BME280;65395;53.168;18.156;2022-12-18T10:01:26;103066.77;;;-4.70;78.65
76553;BME280;65395;53.168;18.156;2022-12-18T10:03:54;103062.88;;;-4.71;78.55
76553;BME280;65395;53.168;18.156;2022-12-18T10:06:32;103061.48;;;-4.70;78.65
76553;BME280;65395;53.168;18.156;2022-12-18T10:09:21;103057.66;;;-4.68;78.86
76553;BME280;65395;53.168;18.156;2022-12-18T10:12:08;103062.96;;;-4.63;78.52
76553;BME280;65395;53.168;18.156;2022-12-18T10:14:53;103066.33;;;-4.62;78.39
76553;BME280;65395;53.168;18.156;2022-12-18T10:17:32;103067.45;;;-4.61;78.52
76553;BME280;65395;53.168;18.156;2022-12-18T10:20:12;103068.95;;;-4.59;78.48
76553;BME280;65395;53.168;18.156;2022-12-18T10:22:56;103075.11;;;-4.57;78.32
76553;BME280;65395;53.168;18.156;2022-12-18T10:25:32;103075.81;;;-4.57;78.16
76553;BME280;65395;53.168;18.156;2022-12-18T10:28:13;103083.99;;;-4.58;78.18
76553;BME280;65395;53.168;18.156;2022-12-18T10:30:41;103087.59;;;-4.58;78.23
76553;BME280;65395;53.168;18.156;2022-12-18T10:33:20;103077.80;;;-4.60;78.20
76553;BME280;65395;53.168;18.156;2022-12-18T10:35:52;103084.61;;;-4.49;78.23
76553;BME280;65395;53.168;18.156;2022-12-18T10:38:25;103090.65;;;-4.44;78.12
76553;BME280;65395;53.168;18.156;2022-12-18T10:40:56;103093.23;;;-4.38;78.00
76553;BME280;65395;53.168;18.156;2022-12-18T10:43:27;103097.63;;;-4.33;77.80
76553;BME280;65395;53.168;18.156;2022-12-18T10:46:15;103091.68;;;-4.29;77.58
76553;BME280;65395;53.168;18.156;2022-12-18T10:48:51;103084.98;;;-4.29;77.34
76553;BME280;65395;53.168;18.156;2022-12-18T10:51:30;103088.28;;;-4.28;77.41
76553;BME280;65395;53.168;18.156;2022-12-18T10:54:03;103092.59;;;-4.26;77.43
76553;BME280;65395;53.168;18.156;2022-12-18T10:56:33;103096.93;;;-4.25;77.41
76553;BME280;65395;53.168;18.156;2022-12-18T10:59:12;103094.68;;;-4.24;77.37
76553;BME280;65395;53.168;18.156;2022-12-18T11:01:50;103098.83;;;-4.24;77.25
76553;BME280;65395;53.168;18.156;2022-12-18T11:04:20;103104.50;;;-4.25;77.19
76553;BME280;65395;53.168;18.156;2022-12-18T11:06:58;103112.85;;;-4.26;77.09
76553;BME280;65395;53.168;18.156;2022-12-18T11:09:28;103125.70;;;-4.28;77.24
76553;BME280;65395;53.168;18.156;2022-12-18T11:11:57;103126.75;;;-4.24;77.34
76553;BME280;65395;53.168;18.156;2022-12-18T11:14:41;103121.55;;;-4.25;77.31
76553;BME280;65395;53.168;18.156;2022-12-18T11:17:19;103118.91;;;-4.25;77.36
76553;BME280;65395;53.168;18.156;2022-12-18T11:19:53;103127.03;;;-4.23;77.41
76553;BME280;65395;53.168;18.156;2022-12-18T11:22:24;103119.73;;;-4.20;77.07
76553;BME280;65395;53.168;18.156;2022-12-18T11:25:04;103112.09;;;-4.13;76.97
76553;BME280;65395;53.168;18.156;2022-12-18T11:27:32;103114.10;;;-4.06;76.92
76553;BME280;65395;53.168;18.156;2022-12-18T11:30:21;103116.85;;;-4.05;76.80
76553;BME280;65395;53.168;18.156;2022-12-18T11:33:08;103115.94;;;-4.08;76.71
76553;BME280;65395;53.168;18.156;2022-12-18T11:35:52;103109.21;;;-4.18;76.89
76553;BME280;65395;53.168;18.156;2022-12-18T11:38:24;103102.26;;;-4.22;76.91
76553;BME280;65395;53.168;18.156;2022-12-18T11:40:57;103100.73;;;-4.25;76.96
76553;BME280;65395;53.168;18.156;2022-12-18T11:43:37;103104.97;;;-4.26;77.07
76553;BME280;65395;53.168;18.156;2022-12-18T11:46:10;103102.23;;;-4.22;77.26
76553;BME280;65395;53.168;18.156;2022-12-18T11:48:55;103104.92;;;-4.17;76.94
76553;BME280;65395;53.168;18.156;2022-12-18T11:51:30;103100.23;;;-4.17;76.92
76553;BME280;65395;53.168;18.156;2022-12-18T11:54:00;103096.83;;;-4.19;76.80
76553;BME280;65395;53.168;18.156;2022-12-18T11:56:34;103097.66;;;-4.21;76.78
76553;BME280;65395;53.168;18.156;2022-12-18T11:59:31;103100.44;;;-4.19;77.02
76553;BME280;65395;53.168;18.156;2022-12-18T12:04:59;103110.73;;;-4.15;76.78
76553;BME280;65395;53.168;18.156;2022-12-18T12:10:31;103118.11;;;-4.17;76.80
76553;BME280;65395;53.168;18.156;2022-12-18T12:13:17;103112.25;;;-4.19;76.85
76553;BME280;65395;53.168;18.156;2022-12-18T12:16:02;103113.33;;;-4.17;76.48
76553;BME280;65395;53.168;18.156;2022-12-18T12:21:28;103126.40;;;-4.14;76.57
76553;BME280;65395;53.168;18.156;2022-12-18T12:24:18;103129.44;;;-4.11;76.89
76553;BME280;65395;53.168;18.156;2022-12-18T12:38:15;103144.95;;;-4.06;76.52
76553;BME280;65395;53.168;18.156;2022-12-18T12:40:47;103155.14;;;-4.06;76.28
76553;BME280;65395;53.168;18.156;2022-12-18T12:43:41;103162.43;;;-4.13;76.38
76553;BME280;65395;53.168;18.156;2022-12-18T12:46:11;103164.80;;;-4.21;76.38
76553;BME280;65395;53.168;18.156;2022-12-18T12:48:46;103168.18;;;-4.29;76.44
76553;BME280;65395;53.168;18.156;2022-12-18T12:51:19;103170.77;;;-4.37;76.72
76553;BME280;65395;53.168;18.156;2022-12-18T12:53:48;103173.45;;;-4.38;76.65
76553;BME280;65395;53.168;18.156;2022-12-18T12:56:18;103175.87;;;-4.39;76.95
76553;BME280;65395;53.168;18.156;2022-12-18T12:58:55;103173.69;;;-4.41;76.84
76553;BME280;65395;53.168;18.156;2022-12-18T13:01:37;103170.70;;;-4.43;76.82
76553;BME280;65395;53.168;18.156;2022-12-18T13:07:08;103176.27;;;-4.33;76.71
76553;BME280;65395;53.168;18.156;2022-12-18T13:12:33;103178.13;;;-4.31;76.26
76553;BME280;65395;53.168;18.156;2022-12-18T13:15:22;103186.66;;;-4.26;76.37
76553;BME280;65395;53.168;18.156;2022-12-18T13:18:03;103183.24;;;-4.32;76.05
76553;BME280;65395;53.168;18.156;2022-12-18T13:20:34;103181.62;;;-4.46;76.03
76553;BME280;65395;53.168;18.156;2022-12-18T13:25:41;103177.18;;;-4.78;75.97
76553;BME280;65395;53.168;18.156;2022-12-18T13:28:14;103179.14;;;-4.95;76.36
76553;BME280;65395;53.168;18.156;2022-12-18T13:30:46;103184.49;;;-5.07;76.76
76553;BME280;65395;53.168;18.156;2022-12-18T13:33:36;103182.92;;;-5.12;76.93
76553;BME280;65395;53.168;18.156;2022-12-18T13:36:15;103175.55;;;-5.19;77.28
76553;BME280;65395;53.168;18.156;2022-12-18T13:38:44;103181.11;;;-5.22;77.25
76553;BME280;65395;53.168;18.156;2022-12-18T13:41:22;103180.50;;;-5.25;77.53
76553;BME280;65395;53.168;18.156;2022-12-18T13:43:53;103175.00;;;-5.27;77.38